sensor_id;sensor_type;location;lat;lon;timestamp;P1;durP1;ratioP1;P2;durP2;ratioP2
67721;SDS011;58309;45.292;11.820;2023-05-14T00:00:47;6.80;;;5.88;;
67721;SDS011;58309;45.292;11.820;2023-05-14T00:03:12;5.97;;;5.38;;
67721;SDS011;58309;45.292;11.820;2023-05-14T00:05:38;6.10;;;5.50;;
67721;SDS011;58309;45.292;11.820;2023-05-14T00:08:03;6.95;;;5.72;;
67721;SDS011;58309;45.292;11.820;2023-05-14T00:10:29;6.00;;;5.40;;
67721;SDS011;58309;45.292;11.820;2023-05-14T00:12:54;8.18;;;5.55;;
67721;SDS011;58309;45.292;11.820;2023-05-14T00:15:20;5.85;;;5.25;;
67721;SDS011;58309;45.292;11.820;2023-05-14T00:17:46;7.38;;;5.68;;
67721;SDS011;58309;45.292;11.820;2023-05-14T00:20:11;6.18;;;5.00;;
67721;SDS011;58309;45.292;11.820;2023-05-14T00:22:37;8.90;;;5.00;;
67721;SDS011;58309;45.292;11.820;2023-05-14T00:25:04;5.18;;;4.68;;
67721;SDS011;58309;45.292;11.820;2023-05-14T00:27:30;5.70;;;5.20;;
67721;SDS011;58309;45.292;11.820;2023-05-14T00:29:56;6.13;;;4.10;;
67721;SDS011;58309;45.292;11.820;2023-05-14T00:32:22;6.28;;;4.40;;
67721;SDS011;58309;45.292;11.820;2023-05-14T00:34:47;7.03;;;4.30;;
67721;SDS011;58309;45.292;11.820;2023-05-14T00:37:13;5.55;;;4.82;;
67721;SDS011;58309;45.292;11.820;2023-05-14T00:39:38;5.50;;;4.10;;
67721;SDS011;58309;45.292;11.820;2023-05-14T00:42:04;6.80;;;4.30;;
67721;SDS011;58309;45.292;11.820;2023-05-14T00:44:30;5.05;;;4.55;;
67721;SDS011;58309;45.292;11.820;2023-05-14T00:46:55;4.55;;;4.13;;
67721;SDS011;58309;45.292;11.820;2023-05-14T00:49:21;8.27;;;4.50;;
67721;SDS011;58309;45.292;11.820;2023-05-14T00:51:47;4.47;;;4.07;;
67721;SDS011;58309;45.292;11.820;2023-05-14T00:54:14;6.53;;;4.82;;
67721;SDS011;58309;45.292;11.820;2023-05-14T00:56:41;6.85;;;4.70;;
67721;SDS011;58309;45.292;11.820;2023-05-14T00:59:09;7.57;;;4.30;;
67721;SDS011;58309;45.292;11.820;2023-05-14T01:01:35;7.05;;;4.80;;
67721;SDS011;58309;45.292;11.820;2023-05-14T01:04:01;6.70;;;5.15;;
67721;SDS011;58309;45.292;11.820;2023-05-14T01:15:05;6.82;;;5.47;;
67721;SDS011;58309;45.292;11.820;2023-05-14T01:17:37;7.82;;;4.47;;
67721;SDS011;58309;45.292;11.820;2023-05-14T01:20:22;6.70;;;4.82;;
67721;SDS011;58309;45.292;11.820;2023-05-14T01:22:47;6.15;;;4.68;;
67721;SDS011;58309;45.292;11.820;2023-05-14T01:25:13;10.13;;;5.40;;
67721;SDS011;58309;45.292;11.820;2023-05-14T01:27:50;5.15;;;4.63;;
67721;SDS011;58309;45.292;11.820;2023-05-14T01:30:27;6.68;;;4.72;;
67721;SDS011;58309;45.292;11.820;2023-05-14T01:32:55;8.38;;;5.18;;
67721;SDS011;58309;45.292;11.820;2023-05-14T01:35:27;7.10;;;5.68;;
67721;SDS011;58309;45.292;11.820;2023-05-14T01:37:54;7.73;;;6.00;;
67721;SDS011;58309;45.292;11.820;2023-05-14T01:40:22;13.35;;;7.05;;
67721;SDS011;58309;45.292;11.820;2023-05-14T01:42:49;11.70;;;8.50;;
67721;SDS011;58309;45.292;11.820;2023-05-14T01:45:19;12.85;;;9.95;;
67721;SDS011;58309;45.292;11.820;2023-05-14T01:47:45;16.73;;;11.63;;
67721;SDS011;58309;45.292;11.820;2023-05-14T01:50:10;20.30;;;12.57;;
67721;SDS011;58309;45.292;11.820;2023-05-14T01:52:36;18.92;;;12.70;;
67721;SDS011;58309;45.292;11.820;2023-05-14T01:55:01;23.13;;;13.00;;
67721;SDS011;58309;45.292;11.820;2023-05-14T01:57:29;20.55;;;12.73;;
67721;SDS011;58309;45.292;11.820;2023-05-14T01:59:54;18.13;;;12.45;;
67721;SDS011;58309;45.292;11.820;2023-05-14T02:02:20;19.60;;;12.48;;
67721;SDS011;58309;45.292;11.820;2023-05-14T02:04:45;15.80;;;11.70;;
67721;SDS011;58309;45.292;11.820;2023-05-14T02:07:11;18.80;;;11.80;;
67721;SDS011;58309;45.292;11.820;2023-05-14T02:09:37;17.13;;;10.65;;
67721;SDS011;58309;45.292;11.820;2023-05-14T02:12:02;18.13;;;10.73;;
67721;SDS011;58309;45.292;11.820;2023-05-14T02:14:28;20.23;;;11.35;;
67721;SDS011;58309;45.292;11.820;2023-05-14T02:16:53;16.90;;;11.63;;
67721;SDS011;58309;45.292;11.820;2023-05-14T02:19:19;23.05;;;13.00;;
67721;SDS011;58309;45.292;11.820;2023-05-14T02:21:44;19.88;;;13.13;;
67721;SDS011;58309;45.292;11.820;2023-05-14T02:24:10;19.42;;;12.93;;
67721;SDS011;58309;45.292;11.820;2023-05-14T02:26:36;25.02;;;14.75;;
67721;SDS011;58309;45.292;11.820;2023-05-14T02:29:01;26.05;;;15.15;;
67721;SDS011;58309;45.292;11.820;2023-05-14T02:31:27;25.60;;;14.50;;
67721;SDS011;58309;45.292;11.820;2023-05-14T02:33:52;24.23;;;14.80;;
67721;SDS011;58309;45.292;11.820;2023-05-14T02:36:18;24.25;;;13.90;;
67721;SDS011;58309;45.292;11.820;2023-05-14T02:38:43;22.75;;;14.13;;
67721;SDS011;58309;45.292;11.820;2023-05-14T02:41:09;17.27;;;11.13;;
67721;SDS011;58309;45.292;11.820;2023-05-14T02:43:34;22.15;;;11.98;;
67721;SDS011;58309;45.292;11.820;2023-05-14T02:46:00;17.38;;;10.45;;
67721;SDS011;58309;45.292;11.820;2023-05-14T02:48:25;15.43;;;9.52;;
67721;SDS011;58309;45.292;11.820;2023-05-14T02:50:51;12.55;;;9.00;;
67721;SDS011;58309;45.292;11.820;2023-05-14T02:53:17;11.75;;;8.25;;
67721;SDS011;58309;45.292;11.820;2023-05-14T02:55:42;11.57;;;8.57;;
67721;SDS011;58309;45.292;11.820;2023-05-14T02:58:08;12.95;;;7.90;;
67721;SDS011;58309;45.292;11.820;2023-05-14T03:00:34;11.15;;;8.07;;
67721;SDS011;58309;45.292;11.820;2023-05-14T03:03:00;14.52;;;7.63;;
67721;SDS011;58309;45.292;11.820;2023-05-14T03:05:25;8.55;;;6.63;;
67721;SDS011;58309;45.292;11.820;2023-05-14T03:07:51;11.75;;;6.75;;
67721;SDS011;58309;45.292;11.820;2023-05-14T03:10:17;9.80;;;7.03;;
67721;SDS011;58309;45.292;11.820;2023-05-14T03:12:43;12.25;;;7.90;;
67721;SDS011;58309;45.292;11.820;2023-05-14T03:15:09;12.02;;;6.55;;
67721;SDS011;58309;45.292;11.820;2023-05-14T03:17:35;8.77;;;6.82;;
67721;SDS011;58309;45.292;11.820;2023-05-14T03:20:01;10.93;;;6.38;;
67721;SDS011;58309;45.292;11.820;2023-05-14T03:22:27;9.63;;;6.40;;
67721;SDS011;58309;45.292;11.820;2023-05-14T03:24:53;12.13;;;7.57;;
67721;SDS011;58309;45.292;11.820;2023-05-14T03:27:18;12.30;;;7.95;;
67721;SDS011;58309;45.292;11.820;2023-05-14T03:29:44;11.77;;;7.97;;
67721;SDS011;58309;45.292;11.820;2023-05-14T03:32:10;13.02;;;7.65;;
67721;SDS011;58309;45.292;11.820;2023-05-14T03:34:35;10.50;;;7.07;;
67721;SDS011;58309;45.292;11.820;2023-05-14T03:37:01;11.35;;;7.53;;
67721;SDS011;58309;45.292;11.820;2023-05-14T03:39:27;14.20;;;7.25;;
67721;SDS011;58309;45.292;11.820;2023-05-14T03:41:52;10.52;;;6.60;;
67721;SDS011;58309;45.292;11.820;2023-05-14T03:44:18;9.07;;;6.10;;
67721;SDS011;58309;45.292;11.820;2023-05-14T03:46:43;11.43;;;6.85;;
67721;SDS011;58309;45.292;11.820;2023-05-14T03:49:09;9.88;;;6.25;;
67721;SDS011;58309;45.292;11.820;2023-05-14T03:51:34;8.15;;;5.70;;
67721;SDS011;58309;45.292;11.820;2023-05-14T03:54:00;8.88;;;6.18;;
67721;SDS011;58309;45.292;11.820;2023-05-14T03:56:25;7.35;;;5.90;;
67721;SDS011;58309;45.292;11.820;2023-05-14T03:58:51;9.40;;;5.78;;
67721;SDS011;58309;45.292;11.820;2023-05-14T04:01:17;7.03;;;5.35;;
67721;SDS011;58309;45.292;11.820;2023-05-14T04:03:42;8.10;;;5.20;;
67721;SDS011;58309;45.292;11.820;2023-05-14T04:06:08;8.38;;;5.25;;
67721;SDS011;58309;45.292;11.820;2023-05-14T04:08:33;5.78;;;4.90;;
67721;SDS011;58309;45.292;11.820;2023-05-14T04:10:59;5.60;;;4.72;;
67721;SDS011;58309;45.292;11.820;2023-05-14T04:13:24;7.25;;;5.05;;
67721;SDS011;58309;45.292;11.820;2023-05-14T04:15:50;5.75;;;4.53;;
67721;SDS011;58309;45.292;11.820;2023-05-14T04:18:16;7.53;;;4.32;;
67721;SDS011;58309;45.292;11.820;2023-05-14T04:20:41;7.78;;;4.70;;
67721;SDS011;58309;45.292;11.820;2023-05-14T04:23:07;6.07;;;4.57;;
67721;SDS011;58309;45.292;11.820;2023-05-14T04:25:32;6.53;;;4.80;;
67721;SDS011;58309;45.292;11.820;2023-05-14T04:27:58;6.53;;;4.70;;
67721;SDS011;58309;45.292;11.820;2023-05-14T04:30:23;7.60;;;4.78;;
67721;SDS011;58309;45.292;11.820;2023-05-14T04:32:49;7.20;;;4.88;;
67721;SDS011;58309;45.292;11.820;2023-05-14T04:35:15;5.38;;;4.22;;
67721;SDS011;58309;45.292;11.820;2023-05-14T04:37:41;5.28;;;3.83;;
67721;SDS011;58309;45.292;11.820;2023-05-14T04:40:07;4.50;;;4.10;;
67721;SDS011;58309;45.292;11.820;2023-05-14T04:42:35;3.70;;;3.40;;
67721;SDS011;58309;45.292;11.820;2023-05-14T04:45:01;6.45;;;3.70;;
67721;SDS011;58309;45.292;11.820;2023-05-14T04:47:29;6.40;;;3.80;;
67721;SDS011;58309;45.292;11.820;2023-05-14T04:49:55;3.97;;;3.58;;
67721;SDS011;58309;45.292;11.820;2023-05-14T04:52:21;3.13;;;2.83;;
67721;SDS011;58309;45.292;11.820;2023-05-14T04:54:47;6.53;;;3.60;;
67721;SDS011;58309;45.292;11.820;2023-05-14T04:57:13;3.60;;;3.30;;
67721;SDS011;58309;45.292;11.820;2023-05-14T04:59:39;3.85;;;3.40;;
67721;SDS011;58309;45.292;11.820;2023-05-14T05:02:04;4.28;;;3.40;;
67721;SDS011;58309;45.292;11.820;2023-05-14T05:04:30;3.65;;;3.17;;
67721;SDS011;58309;45.292;11.820;2023-05-14T05:06:55;3.50;;;3.20;;
67721;SDS011;58309;45.292;11.820;2023-05-14T05:09:21;8.20;;;3.88;;
67721;SDS011;58309;45.292;11.820;2023-05-14T05:11:46;5.93;;;3.17;;
67721;SDS011;58309;45.292;11.820;2023-05-14T05:14:12;4.13;;;3.00;;
67721;SDS011;58309;45.292;11.820;2023-05-14T05:16:37;6.93;;;3.38;;
67721;SDS011;58309;45.292;11.820;2023-05-14T05:19:03;3.50;;;3.20;;
67721;SDS011;58309;45.292;11.820;2023-05-14T05:21:29;4.07;;;3.10;;
67721;SDS011;58309;45.292;11.820;2023-05-14T05:23:54;3.33;;;3.03;;
67721;SDS011;58309;45.292;11.820;2023-05-14T05:26:20;6.55;;;3.38;;
67721;SDS011;58309;45.292;11.820;2023-05-14T05:28:46;3.28;;;2.88;;
67721;SDS011;58309;45.292;11.820;2023-05-14T05:31:12;4.63;;;3.20;;
67721;SDS011;58309;45.292;11.820;2023-05-14T05:33:37;6.05;;;3.20;;
67721;SDS011;58309;45.292;11.820;2023-05-14T05:36:03;4.18;;;3.20;;
67721;SDS011;58309;45.292;11.820;2023-05-14T05:38:29;3.15;;;2.95;;
67721;SDS011;58309;45.292;11.820;2023-05-14T05:40:54;4.78;;;3.00;;
67721;SDS011;58309;45.292;11.820;2023-05-14T05:43:20;4.80;;;3.30;;
67721;SDS011;58309;45.292;11.820;2023-05-14T05:45:46;3.38;;;2.90;;
67721;SDS011;58309;45.292;11.820;2023-05-14T05:48:11;3.70;;;3.10;;
67721;SDS011;58309;45.292;11.820;2023-05-14T05:50:37;4.32;;;3.05;;
67721;SDS011;58309;45.292;11.820;2023-05-14T05:53:02;3.42;;;3.10;;
67721;SDS011;58309;45.292;11.820;2023-05-14T05:55:28;3.50;;;3.20;;
67721;SDS011;58309;45.292;11.820;2023-05-14T05:57:54;6.53;;;3.20;;
67721;SDS011;58309;45.292;11.820;2023-05-14T06:00:20;3.60;;;3.20;;
67721;SDS011;58309;45.292;11.820;2023-05-14T06:02:46;4.72;;;3.20;;
67721;SDS011;58309;45.292;11.820;2023-05-14T06:05:11;3.45;;;3.15;;
67721;SDS011;58309;45.292;11.820;2023-05-14T06:07:37;3.67;;;3.25;;
67721;SDS011;58309;45.292;11.820;2023-05-14T06:10:03;3.65;;;3.35;;
67721;SDS011;58309;45.292;11.820;2023-05-14T06:12:29;5.97;;;5.00;;
67721;SDS011;58309;45.292;11.820;2023-05-14T06:14:54;5.20;;;4.57;;
67721;SDS011;58309;45.292;11.820;2023-05-14T06:17:22;4.90;;;4.47;;
67721;SDS011;58309;45.292;11.820;2023-05-14T06:19:48;3.50;;;3.20;;
67721;SDS011;58309;45.292;11.820;2023-05-14T06:22:15;4.43;;;3.20;;
67721;SDS011;58309;45.292;11.820;2023-05-14T06:24:41;3.05;;;2.85;;
67721;SDS011;58309;45.292;11.820;2023-05-14T06:27:06;3.85;;;3.55;;
67721;SDS011;58309;45.292;11.820;2023-05-14T06:29:32;4.30;;;3.90;;
67721;SDS011;58309;45.292;11.820;2023-05-14T06:32:01;6.00;;;3.50;;
67721;SDS011;58309;45.292;11.820;2023-05-14T06:34:27;5.70;;;5.20;;
67721;SDS011;58309;45.292;11.820;2023-05-14T06:36:53;3.70;;;3.40;;
67721;SDS011;58309;45.292;11.820;2023-05-14T06:39:18;5.72;;;5.13;;
67721;SDS011;58309;45.292;11.820;2023-05-14T06:41:44;4.95;;;3.38;;
67721;SDS011;58309;45.292;11.820;2023-05-14T06:44:10;4.15;;;3.75;;
67721;SDS011;58309;45.292;11.820;2023-05-14T06:46:35;3.50;;;3.20;;
67721;SDS011;58309;45.292;11.820;2023-05-14T06:49:01;5.18;;;3.40;;
67721;SDS011;58309;45.292;11.820;2023-05-14T06:51:27;3.53;;;3.20;;
67721;SDS011;58309;45.292;11.820;2023-05-14T06:53:53;5.90;;;3.15;;
67721;SDS011;58309;45.292;11.820;2023-05-14T06:56:20;4.18;;;3.78;;
67721;SDS011;58309;45.292;11.820;2023-05-14T06:58:46;3.28;;;3.08;;
67721;SDS011;58309;45.292;11.820;2023-05-14T07:01:12;3.03;;;2.78;;
67721;SDS011;58309;45.292;11.820;2023-05-14T07:03:37;3.38;;;2.88;;
67721;SDS011;58309;45.292;11.820;2023-05-14T07:06:03;4.88;;;3.00;;
67721;SDS011;58309;45.292;11.820;2023-05-14T07:08:29;3.33;;;3.03;;
67721;SDS011;58309;45.292;11.820;2023-05-14T07:10:54;3.75;;;3.13;;
67721;SDS011;58309;45.292;11.820;2023-05-14T07:13:21;5.70;;;3.38;;
67721;SDS011;58309;45.292;11.820;2023-05-14T07:15:47;2.97;;;2.67;;
67721;SDS011;58309;45.292;11.820;2023-05-14T07:18:13;4.57;;;3.28;;
67721;SDS011;58309;45.292;11.820;2023-05-14T07:20:38;4.50;;;3.30;;
67721;SDS011;58309;45.292;11.820;2023-05-14T07:23:04;3.30;;;3.10;;
67721;SDS011;58309;45.292;11.820;2023-05-14T07:25:29;5.40;;;3.78;;
67721;SDS011;58309;45.292;11.820;2023-05-14T07:27:55;4.57;;;3.25;;
67721;SDS011;58309;45.292;11.820;2023-05-14T07:30:20;5.07;;;2.80;;
67721;SDS011;58309;45.292;11.820;2023-05-14T07:32:46;3.13;;;2.80;;
67721;SDS011;58309;45.292;11.820;2023-05-14T07:35:11;4.70;;;3.00;;
67721;SDS011;58309;45.292;11.820;2023-05-14T07:37:37;4.25;;;3.10;;
67721;SDS011;58309;45.292;11.820;2023-05-14T07:40:03;3.58;;;3.10;;
67721;SDS011;58309;45.292;11.820;2023-05-14T07:42:29;5.78;;;3.80;;
67721;SDS011;58309;45.292;11.820;2023-05-14T07:44:54;4.97;;;3.00;;
67721;SDS011;58309;45.292;11.820;2023-05-14T07:47:20;3.30;;;3.00;;
67721;SDS011;58309;45.292;11.820;2023-05-14T07:49:45;3.97;;;2.80;;
67721;SDS011;58309;45.292;11.820;2023-05-14T07:52:11;5.68;;;3.28;;
67721;SDS011;58309;45.292;11.820;2023-05-14T07:54:36;4.70;;;3.20;;
67721;SDS011;58309;45.292;11.820;2023-05-14T07:57:02;4.95;;;3.28;;
67721;SDS011;58309;45.292;11.820;2023-05-14T07:59:28;4.57;;;3.17;;
67721;SDS011;58309;45.292;11.820;2023-05-14T08:01:53;5.28;;;3.45;;
67721;SDS011;58309;45.292;11.820;2023-05-14T08:04:19;6.13;;;3.33;;
67721;SDS011;58309;45.292;11.820;2023-05-14T08:06:44;5.57;;;3.30;;
67721;SDS011;58309;45.292;11.820;2023-05-14T08:09:10;3.75;;;3.40;;
67721;SDS011;58309;45.292;11.820;2023-05-14T08:11:35;10.05;;;3.83;;
67721;SDS011;58309;45.292;11.820;2023-05-14T08:14:01;4.72;;;3.67;;
67721;SDS011;58309;45.292;11.820;2023-05-14T08:16:27;6.57;;;3.72;;
67721;SDS011;58309;45.292;11.820;2023-05-14T08:18:53;4.80;;;3.72;;
67721;SDS011;58309;45.292;11.820;2023-05-14T08:21:18;4.10;;;3.70;;
67721;SDS011;58309;45.292;11.820;2023-05-14T08:23:44;4.47;;;3.70;;
67721;SDS011;58309;45.292;11.820;2023-05-14T08:26:10;7.72;;;4.00;;
67721;SDS011;58309;45.292;11.820;2023-05-14T08:28:35;6.82;;;3.95;;
67721;SDS011;58309;45.292;11.820;2023-05-14T08:31:01;5.15;;;4.10;;
67721;SDS011;58309;45.292;11.820;2023-05-14T08:33:26;6.80;;;5.35;;
67721;SDS011;58309;45.292;11.820;2023-05-14T08:35:52;5.60;;;4.10;;
67721;SDS011;58309;45.292;11.820;2023-05-14T08:38:18;4.55;;;4.13;;
67721;SDS011;58309;45.292;11.820;2023-05-14T08:40:52;4.85;;;4.35;;
67721;SDS011;58309;45.292;11.820;2023-05-14T08:43:24;5.68;;;4.10;;
67721;SDS011;58309;45.292;11.820;2023-05-14T08:45:57;7.20;;;4.97;;
67721;SDS011;58309;45.292;11.820;2023-05-14T08:48:25;8.88;;;3.88;;
67721;SDS011;58309;45.292;11.820;2023-05-14T08:50:55;4.60;;;4.15;;
67721;SDS011;58309;45.292;11.820;2023-05-14T08:53:21;6.28;;;3.88;;
67721;SDS011;58309;45.292;11.820;2023-05-14T08:55:47;4.60;;;3.95;;
67721;SDS011;58309;45.292;11.820;2023-05-14T08:58:15;7.63;;;3.88;;
67721;SDS011;58309;45.292;11.820;2023-05-14T09:00:41;5.50;;;3.30;;
67721;SDS011;58309;45.292;11.820;2023-05-14T09:03:07;5.13;;;3.80;;
67721;SDS011;58309;45.292;11.820;2023-05-14T09:05:32;4.45;;;3.60;;
67721;SDS011;58309;45.292;11.820;2023-05-14T09:07:58;3.83;;;3.15;;
67721;SDS011;58309;45.292;11.820;2023-05-14T09:10:24;5.07;;;3.10;;
67721;SDS011;58309;45.292;11.820;2023-05-14T09:12:50;4.25;;;3.10;;
67721;SDS011;58309;45.292;11.820;2023-05-14T09:15:16;2.58;;;2.38;;
67721;SDS011;58309;45.292;11.820;2023-05-14T09:17:42;3.60;;;2.60;;
67721;SDS011;58309;45.292;11.820;2023-05-14T09:20:08;2.13;;;1.90;;
67721;SDS011;58309;45.292;11.820;2023-05-14T09:22:37;3.53;;;2.67;;
67721;SDS011;58309;45.292;11.820;2023-05-14T09:25:07;2.63;;;2.42;;
67721;SDS011;58309;45.292;11.820;2023-05-14T09:27:35;3.28;;;2.13;;
67721;SDS011;58309;45.292;11.820;2023-05-14T09:30:10;3.63;;;2.00;;
67721;SDS011;58309;45.292;11.820;2023-05-14T09:32:38;1.92;;;1.70;;
67721;SDS011;58309;45.292;11.820;2023-05-14T09:35:08;1.98;;;1.80;;
67721;SDS011;58309;45.292;11.820;2023-05-14T09:37:43;1.95;;;1.85;;
67721;SDS011;58309;45.292;11.820;2023-05-14T09:40:11;2.33;;;1.92;;
67721;SDS011;58309;45.292;11.820;2023-05-14T09:42:37;2.72;;;2.08;;
67721;SDS011;58309;45.292;11.820;2023-05-14T09:45:03;2.45;;;2.05;;
67721;SDS011;58309;45.292;11.820;2023-05-14T09:47:31;1.75;;;1.65;;
67721;SDS011;58309;45.292;11.820;2023-05-14T09:49:56;2.03;;;1.63;;
67721;SDS011;58309;45.292;11.820;2023-05-14T09:52:22;1.75;;;1.65;;
67721;SDS011;58309;45.292;11.820;2023-05-14T09:54:49;1.65;;;1.55;;
67721;SDS011;58309;45.292;11.820;2023-05-14T09:57:16;2.03;;;1.80;;
67721;SDS011;58309;45.292;11.820;2023-05-14T09:59:41;1.80;;;1.70;;
67721;SDS011;58309;45.292;11.820;2023-05-14T10:02:09;2.75;;;2.10;;
67721;SDS011;58309;45.292;11.820;2023-05-14T10:04:51;2.33;;;2.10;;
67721;SDS011;58309;45.292;11.820;2023-05-14T10:07:18;2.22;;;1.90;;
67721;SDS011;58309;45.292;11.820;2023-05-14T10:09:48;2.00;;;1.90;;
67721;SDS011;58309;45.292;11.820;2023-05-14T10:12:18;2.97;;;1.98;;
67721;SDS011;58309;45.292;11.820;2023-05-14T10:14:47;1.58;;;1.48;;
67721;SDS011;58309;45.292;11.820;2023-05-14T10:19:49;2.67;;;1.80;;
67721;SDS011;58309;45.292;11.820;2023-05-14T10:22:21;1.80;;;1.70;;
67721;SDS011;58309;45.292;11.820;2023-05-14T10:24:49;1.92;;;1.80;;
67721;SDS011;58309;45.292;11.820;2023-05-14T10:27:19;1.70;;;1.60;;
67721;SDS011;58309;45.292;11.820;2023-05-14T10:29:52;1.73;;;1.63;;
67721;SDS011;58309;45.292;11.820;2023-05-14T10:32:19;3.70;;;1.98;;
67721;SDS011;58309;45.292;11.820;2023-05-14T10:34:46;2.30;;;2.10;;
67721;SDS011;58309;45.292;11.820;2023-05-14T10:37:17;2.25;;;2.05;;
67721;SDS011;58309;45.292;11.820;2023-05-14T10:39:53;1.80;;;1.70;;
67721;SDS011;58309;45.292;11.820;2023-05-14T10:42:23;1.70;;;1.60;;
67721;SDS011;58309;45.292;11.820;2023-05-14T10:47:22;1.88;;;1.70;;
67721;SDS011;58309;45.292;11.820;2023-05-14T10:49:51;1.90;;;1.80;;
67721;SDS011;58309;45.292;11.820;2023-05-14T10:52:18;2.10;;;1.90;;
67721;SDS011;58309;45.292;11.820;2023-05-14T10:54:47;1.80;;;1.70;;
67721;SDS011;58309;45.292;11.820;2023-05-14T10:57:24;2.50;;;2.08;;
67721;SDS011;58309;45.292;11.820;2023-05-14T10:59:52;2.58;;;1.85;;
67721;SDS011;58309;45.292;11.820;2023-05-14T11:02:29;2.75;;;1.75;;
67721;SDS011;58309;45.292;11.820;2023-05-14T11:04:57;1.90;;;1.80;;
67721;SDS011;58309;45.292;11.820;2023-05-14T11:12:25;2.97;;;2.10;;
67721;SDS011;58309;45.292;11.820;2023-05-14T11:14:52;2.22;;;2.08;;
67721;SDS011;58309;45.292;11.820;2023-05-14T11:17:18;3.45;;;1.77;;
67721;SDS011;58309;45.292;11.820;2023-05-14T11:19:43;3.17;;;2.00;;
67721;SDS011;58309;45.292;11.820;2023-05-14T11:22:10;2.47;;;2.28;;
67721;SDS011;58309;45.292;11.820;2023-05-14T11:24:39;1.70;;;1.60;;
67721;SDS011;58309;45.292;11.820;2023-05-14T11:27:08;1.70;;;1.60;;
67721;SDS011;58309;45.292;11.820;2023-05-14T11:29:35;1.63;;;1.52;;
67721;SDS011;58309;45.292;11.820;2023-05-14T11:32:03;1.70;;;1.60;;
67721;SDS011;58309;45.292;11.820;2023-05-14T11:34:30;1.70;;;1.60;;
67721;SDS011;58309;45.292;11.820;2023-05-14T11:36:56;1.98;;;1.77;;
67721;SDS011;58309;45.292;11.820;2023-05-14T11:39:22;1.90;;;1.60;;
67721;SDS011;58309;45.292;11.820;2023-05-14T11:41:47;1.70;;;1.55;;
67721;SDS011;58309;45.292;11.820;2023-05-14T11:44:13;1.65;;;1.55;;
67721;SDS011;58309;45.292;11.820;2023-05-14T11:46:39;1.88;;;1.75;;
67721;SDS011;58309;45.292;11.820;2023-05-14T11:49:04;1.60;;;1.50;;
67721;SDS011;58309;45.292;11.820;2023-05-14T11:51:31;1.92;;;1.70;;
67721;SDS011;58309;45.292;11.820;2023-05-14T11:53:57;2.17;;;1.77;;
67721;SDS011;58309;45.292;11.820;2023-05-14T11:56:25;2.00;;;1.90;;
67721;SDS011;58309;45.292;11.820;2023-05-14T11:58:56;1.80;;;1.70;;
67721;SDS011;58309;45.292;11.820;2023-05-14T12:01:22;2.05;;;1.73;;
67721;SDS011;58309;45.292;11.820;2023-05-14T12:03:49;3.30;;;2.13;;
67721;SDS011;58309;45.292;11.820;2023-05-14T12:06:15;1.95;;;1.80;;
67721;SDS011;58309;45.292;11.820;2023-05-14T12:08:42;2.72;;;1.88;;
67721;SDS011;58309;45.292;11.820;2023-05-14T12:11:07;1.85;;;1.75;;
67721;SDS011;58309;45.292;11.820;2023-05-14T12:13:33;2.10;;;2.00;;
67721;SDS011;58309;45.292;11.820;2023-05-14T12:16:00;2.50;;;1.90;;
67721;SDS011;58309;45.292;11.820;2023-05-14T12:18:30;2.30;;;2.00;;
67721;SDS011;58309;45.292;11.820;2023-05-14T12:21:03;6.65;;;2.25;;
67721;SDS011;58309;45.292;11.820;2023-05-14T12:23:31;2.30;;;2.10;;
67721;SDS011;58309;45.292;11.820;2023-05-14T12:26:04;3.38;;;2.10;;
67721;SDS011;58309;45.292;11.820;2023-05-14T12:28:31;2.17;;;2.03;;
67721;SDS011;58309;45.292;11.820;2023-05-14T12:30:57;2.88;;;2.20;;
67721;SDS011;58309;45.292;11.820;2023-05-14T12:33:24;2.40;;;2.20;;
67721;SDS011;58309;45.292;11.820;2023-05-14T12:35:51;3.42;;;2.03;;
67721;SDS011;58309;45.292;11.820;2023-05-14T12:38:26;2.33;;;2.10;;
67721;SDS011;58309;45.292;11.820;2023-05-14T12:40:52;2.10;;;2.00;;
67721;SDS011;58309;45.292;11.820;2023-05-14T12:43:17;4.60;;;2.05;;
67721;SDS011;58309;45.292;11.820;2023-05-14T12:45:43;2.38;;;2.00;;
67721;SDS011;58309;45.292;11.820;2023-05-14T12:48:09;1.92;;;1.83;;
67721;SDS011;58309;45.292;11.820;2023-05-14T12:50:34;1.85;;;1.70;;
67721;SDS011;58309;45.292;11.820;2023-05-14T12:53:00;1.90;;;1.80;;
67721;SDS011;58309;45.292;11.820;2023-05-14T12:55:26;2.28;;;1.67;;
67721;SDS011;58309;45.292;11.820;2023-05-14T12:57:51;2.00;;;1.80;;
67721;SDS011;58309;45.292;11.820;2023-05-14T13:00:18;2.20;;;2.00;;
67721;SDS011;58309;45.292;11.820;2023-05-14T13:02:44;2.03;;;1.90;;
67721;SDS011;58309;45.292;11.820;2023-05-14T13:05:10;3.72;;;2.03;;
67721;SDS011;58309;45.292;11.820;2023-05-14T13:07:36;1.92;;;1.83;;
67721;SDS011;58309;45.292;11.820;2023-05-14T13:10:02;2.00;;;1.90;;
67721;SDS011;58309;45.292;11.820;2023-05-14T13:12:29;1.83;;;1.73;;
67721;SDS011;58309;45.292;11.820;2023-05-14T13:14:55;2.58;;;2.00;;
67721;SDS011;58309;45.292;11.820;2023-05-14T13:17:20;6.18;;;2.13;;
67721;SDS011;58309;45.292;11.820;2023-05-14T13:19:46;5.40;;;2.50;;
67721;SDS011;58309;45.292;11.820;2023-05-14T13:22:12;2.00;;;1.90;;
67721;SDS011;58309;45.292;11.820;2023-05-14T13:24:38;2.50;;;1.85;;
67721;SDS011;58309;45.292;11.820;2023-05-14T13:27:04;2.40;;;2.08;;
67721;SDS011;58309;45.292;11.820;2023-05-14T13:29:29;2.30;;;2.10;;
67721;SDS011;58309;45.292;11.820;2023-05-14T13:31:55;3.45;;;2.40;;
67721;SDS011;58309;45.292;11.820;2023-05-14T13:34:21;3.13;;;2.20;;
67721;SDS011;58309;45.292;11.820;2023-05-14T13:36:46;2.42;;;2.22;;
67721;SDS011;58309;45.292;11.820;2023-05-14T13:39:13;2.15;;;2.03;;
67721;SDS011;58309;45.292;11.820;2023-05-14T13:41:39;2.17;;;1.90;;
67721;SDS011;58309;45.292;11.820;2023-05-14T13:44:05;2.30;;;2.10;;
67721;SDS011;58309;45.292;11.820;2023-05-14T13:46:31;2.35;;;2.10;;
67721;SDS011;58309;45.292;11.820;2023-05-14T13:48:56;2.40;;;2.20;;
67721;SDS011;58309;45.292;11.820;2023-05-14T13:51:22;3.58;;;2.20;;
67721;SDS011;58309;45.292;11.820;2023-05-14T13:53:48;3.58;;;2.00;;
67721;SDS011;58309;45.292;11.820;2023-05-14T13:56:14;2.13;;;2.00;;
67721;SDS011;58309;45.292;11.820;2023-05-14T13:58:39;2.17;;;2.08;;
67721;SDS011;58309;45.292;11.820;2023-05-14T14:01:05;2.28;;;2.08;;
67721;SDS011;58309;45.292;11.820;2023-05-14T14:03:30;2.28;;;2.08;;
67721;SDS011;58309;45.292;11.820;2023-05-14T14:05:56;2.33;;;2.08;;
67721;SDS011;58309;45.292;11.820;2023-05-14T14:08:21;2.40;;;2.20;;
67721;SDS011;58309;45.292;11.820;2023-05-14T14:10:47;2.40;;;2.20;;
67721;SDS011;58309;45.292;11.820;2023-05-14T14:13:12;2.00;;;1.90;;
67721;SDS011;58309;45.292;11.820;2023-05-14T14:15:38;2.35;;;1.90;;
67721;SDS011;58309;45.292;11.820;2023-05-14T14:18:04;2.47;;;2.20;;
67721;SDS011;58309;45.292;11.820;2023-05-14T14:20:30;2.00;;;1.90;;
67721;SDS011;58309;45.292;11.820;2023-05-14T14:22:55;2.00;;;1.90;;
67721;SDS011;58309;45.292;11.820;2023-05-14T14:25:21;3.13;;;1.85;;
67721;SDS011;58309;45.292;11.820;2023-05-14T14:27:47;2.00;;;1.90;;
67721;SDS011;58309;45.292;11.820;2023-05-14T14:30:13;2.38;;;2.03;;
67721;SDS011;58309;45.292;11.820;2023-05-14T14:32:44;2.13;;;1.90;;
67721;SDS011;58309;45.292;11.820;2023-05-14T14:35:11;1.85;;;1.75;;
67721;SDS011;58309;45.292;11.820;2023-05-14T14:37:38;1.70;;;1.60;;
67721;SDS011;58309;45.292;11.820;2023-05-14T14:40:05;1.92;;;1.83;;
67721;SDS011;58309;45.292;11.820;2023-05-14T14:42:35;1.85;;;1.75;;
67721;SDS011;58309;45.292;11.820;2023-05-14T14:45:02;1.77;;;1.67;;